sensor_id;sensor_type;location;lat;lon;timestamp;pressure;altitude;pressure_sealevel;temperature;humidity
29569;BME280;16501;51.462;14.346;2022-11-20T00:01:29;99809.91;;;-3.43;95.57
29569;BME280;16501;51.462;14.346;2022-11-20T00:03:56;99799.31;;;-3.48;95.67
29569;BME280;16501;51.462;14.346;2022-11-20T00:06:23;99816.94;;;-3.45;95.75
29569;BME280;16501;51.462;14.346;2022-11-20T00:08:49;99807.91;;;-3.49;95.66
29569;BME280;16501;51.462;14.346;2022-11-20T00:11:16;99786.38;;;-3.62;95.54
29569;BME280;16501;51.462;14.346;2022-11-20T00:13:45;99800.47;;;-3.49;95.79
29569;BME280;16501;51.462;14.346;2022-11-20T00:16:13;99803.22;;;-3.49;96.14
29569;BME280;16501;51.462;14.346;2022-11-20T00:18:39;99807.16;;;-3.43;96.49
29569;BME280;16501;51.462;14.346;2022-11-20T00:21:07;99805.97;;;-3.42;96.44
29569;BME280;16501;51.462;14.346;2022-11-20T00:23:34;99801.66;;;-3.50;96.28
29569;BME280;16501;51.462;14.346;2022-11-20T00:26:04;99803.59;;;-3.50;95.94
29569;BME280;16501;51.462;14.346;2022-11-20T00:28:29;99805.16;;;-3.56;96.38
29569;BME280;16501;51.462;14.346;2022-11-20T00:31:03;99794.97;;;-3.60;95.95
29569;BME280;16501;51.462;14.346;2022-11-20T00:33:29;99800.06;;;-3.62;96.03
29569;BME280;16501;51.462;14.346;2022-11-20T00:35:59;99796.94;;;-3.64;95.61
29569;BME280;16501;51.462;14.346;2022-11-20T00:38:25;99772.19;;;-3.85;95.80
29569;BME280;16501;51.462;14.346;2022-11-20T00:40:55;99794.94;;;-3.74;95.70
29569;BME280;16501;51.462;14.346;2022-11-20T00:43:21;99765.94;;;-3.89;95.94
29569;BME280;16501;51.462;14.346;2022-11-20T00:45:46;99796.13;;;-3.68;96.07
29569;BME280;16501;51.462;14.346;2022-11-20T00:48:11;99811.38;;;-3.74;96.54
29569;BME280;16501;51.462;14.346;2022-11-20T00:50:36;99804.69;;;-3.80;96.28
29569;BME280;16501;51.462;14.346;2022-11-20T00:53:02;99788.59;;;-3.92;96.05
29569;BME280;16501;51.462;14.346;2022-11-20T00:55:27;99809.78;;;-3.86;96.62
29569;BME280;16501;51.462;14.346;2022-11-20T00:57:52;99802.25;;;-4.07;96.76
29569;BME280;16501;51.462;14.346;2022-11-20T01:00:17;99793.25;;;-4.07;96.96
29569;BME280;16501;51.462;14.346;2022-11-20T01:02:43;99803.44;;;-4.01;97.01
29569;BME280;16501;51.462;14.346;2022-11-20T01:05:08;99794.41;;;-4.08;97.70
29569;BME280;16501;51.462;14.346;2022-11-20T01:07:33;99807.34;;;-4.09;97.10
29569;BME280;16501;51.462;14.346;2022-11-20T01:09:58;99812.81;;;-4.05;97.07
29569;BME280;16501;51.462;14.346;2022-11-20T01:12:24;99808.09;;;-4.08;98.33
29569;BME280;16501;51.462;14.346;2022-11-20T01:14:49;99830.03;;;-4.05;98.43
29569;BME280;16501;51.462;14.346;2022-11-20T01:17:14;99835.50;;;-4.08;98.77
29569;BME280;16501;51.462;14.346;2022-11-20T01:19:39;99819.81;;;-4.15;98.79
29569;BME280;16501;51.462;14.346;2022-11-20T01:22:05;99834.34;;;-4.07;98.75
29569;BME280;16501;51.462;14.346;2022-11-20T01:24:30;99829.59;;;-4.14;98.81
29569;BME280;16501;51.462;14.346;2022-11-20T01:26:55;99831.59;;;-4.11;98.10
29569;BME280;16501;51.462;14.346;2022-11-20T01:29:22;99830.41;;;-4.06;97.86
29569;BME280;16501;51.462;14.346;2022-11-20T01:31:48;99820.63;;;-4.11;97.85
29569;BME280;16501;51.462;14.346;2022-11-20T01:34:16;99797.84;;;-4.26;97.25
29569;BME280;16501;51.462;14.346;2022-11-20T01:36:42;99839.47;;;-3.95;97.87
29569;BME280;16501;51.462;14.346;2022-11-20T01:39:12;99832.44;;;-3.92;98.00
29569;BME280;16501;51.462;14.346;2022-11-20T01:41:38;99835.94;;;-3.95;97.08
29569;BME280;16501;51.462;14.346;2022-11-20T01:47:09;99812.81;;;-4.09;97.20
29569;BME280;16501;51.462;14.346;2022-11-20T01:49:59;99837.88;;;-4.03;97.09
29569;BME280;16501;51.462;14.346;2022-11-20T01:52:32;99835.56;;;-3.90;97.08
29569;BME280;16501;51.462;14.346;2022-11-20T01:57:29;99843.03;;;-3.87;96.49
29569;BME280;16501;51.462;14.346;2022-11-20T02:00:04;99811.63;;;-4.04;95.85
29569;BME280;16501;51.462;14.346;2022-11-20T02:02:31;99829.31;;;-3.91;95.20
29569;BME280;16501;51.462;14.346;2022-11-20T02:05:01;99815.19;;;-4.04;94.79
29569;BME280;16501;51.462;14.346;2022-11-20T02:07:29;99809.69;;;-4.11;95.27
29569;BME280;16501;51.462;14.346;2022-11-20T02:09:55;99795.53;;;-4.20;94.66
29569;BME280;16501;51.462;14.346;2022-11-20T02:12:20;99805.72;;;-4.17;95.01
29569;BME280;16501;51.462;14.346;2022-11-20T02:15:04;99825.75;;;-4.06;94.85
29569;BME280;16501;51.462;14.346;2022-11-20T02:17:30;99816.69;;;-4.10;94.75
29569;BME280;16501;51.462;14.346;2022-11-20T02:19:55;99819.06;;;-4.08;94.59
29569;BME280;16501;51.462;14.346;2022-11-20T02:22:38;99811.59;;;-4.15;94.38
29569;BME280;16501;51.462;14.346;2022-11-20T02:25:09;99806.13;;;-4.11;94.76
29569;BME280;16501;51.462;14.346;2022-11-20T02:27:35;99804.13;;;-4.18;94.73
29569;BME280;16501;51.462;14.346;2022-11-20T02:30:05;99808.06;;;-4.19;94.61
29569;BME280;16501;51.462;14.346;2022-11-20T02:32:35;99789.59;;;-4.37;94.68
29569;BME280;16501;51.462;14.346;2022-11-20T02:37:57;99807.63;;;-4.28;94.65
29569;BME280;16501;51.462;14.346;2022-11-20T02:40:24;99799.38;;;-4.32;94.82
29569;BME280;16501;51.462;14.346;2022-11-20T02:42:53;99799.38;;;-4.32;94.57
29569;BME280;16501;51.462;14.346;2022-11-20T02:45:19;99806.81;;;-4.32;94.54
29569;BME280;16501;51.462;14.346;2022-11-20T02:47:44;99800.53;;;-4.37;94.76
29569;BME280;16501;51.462;14.346;2022-11-20T02:50:09;99786.84;;;-4.40;95.11
29569;BME280;16501;51.462;14.346;2022-11-20T02:52:35;99782.91;;;-4.43;95.72
29569;BME280;16501;51.462;14.346;2022-11-20T02:55:00;99782.53;;;-4.41;96.44
29569;BME280;16501;51.462;14.346;2022-11-20T02:57:25;99760.13;;;-4.61;97.22
29569;BME280;16501;51.462;14.346;2022-11-20T02:59:51;99731.53;;;-4.71;97.79
29569;BME280;16501;51.462;14.346;2022-11-20T03:02:16;99759.81;;;-4.52;97.72
29569;BME280;16501;51.462;14.346;2022-11-20T03:04:41;99745.31;;;-4.53;97.02
29569;BME280;16501;51.462;14.346;2022-11-20T03:07:07;99771.94;;;-4.43;97.45
29569;BME280;16501;51.462;14.346;2022-11-20T03:09:33;99748.44;;;-4.55;97.45
29569;BME280;16501;51.462;14.346;2022-11-20T03:11:58;99771.59;;;-4.38;97.49
29569;BME280;16501;51.462;14.346;2022-11-20T03:14:23;99770.81;;;-4.38;97.63
29569;BME280;16501;51.462;14.346;2022-11-20T03:16:48;99761.00;;;-4.46;97.13
29569;BME280;16501;51.462;14.346;2022-11-20T03:19:14;99767.31;;;-4.39;97.34
29569;BME280;16501;51.462;14.346;2022-11-20T03:21:39;99741.38;;;-4.59;97.19
29569;BME280;16501;51.462;14.346;2022-11-20T03:24:04;99771.53;;;-4.48;97.49
29569;BME280;16501;51.462;14.346;2022-11-20T03:26:30;99752.28;;;-4.66;97.88
29569;BME280;16501;51.462;14.346;2022-11-20T03:28:57;99761.72;;;-4.57;98.80
29569;BME280;16501;51.462;14.346;2022-11-20T03:31:26;99758.13;;;-4.71;99.08
29569;BME280;16501;51.462;14.346;2022-11-20T03:33:52;99761.22;;;-4.77;99.96
29569;BME280;16501;51.462;14.346;2022-11-20T03:36:18;99764.44;;;-4.60;100.00
29569;BME280;16501;51.462;14.346;2022-11-20T03:38:44;99770.31;;;-4.58;99.76
29569;BME280;16501;51.462;14.346;2022-11-20T03:41:12;99763.25;;;-4.66;99.75
29569;BME280;16501;51.462;14.346;2022-11-20T03:43:38;99773.47;;;-4.52;99.90
29569;BME280;16501;51.462;14.346;2022-11-20T03:46:04;99769.56;;;-4.48;99.61
29569;BME280;16501;51.462;14.346;2022-11-20T03:48:30;99760.97;;;-4.50;99.82
29569;BME280;16501;51.462;14.346;2022-11-20T03:51:16;99767.66;;;-4.44;99.82
29569;BME280;16501;51.462;14.346;2022-11-20T03:53:57;99764.91;;;-4.47;99.11
29569;BME280;16501;51.462;14.346;2022-11-20T03:56:31;99765.28;;;-4.52;99.51
29569;BME280;16501;51.462;14.346;2022-11-20T03:58:57;99747.16;;;-4.79;100.00
29569;BME280;16501;51.462;14.346;2022-11-20T04:01:25;99750.69;;;-4.75;100.00
29569;BME280;16501;51.462;14.346;2022-11-20T04:03:52;99755.06;;;-4.63;100.00
29569;BME280;16501;51.462;14.346;2022-11-20T04:06:27;99714.97;;;-5.00;100.00
29569;BME280;16501;51.462;14.346;2022-11-20T04:08:56;99742.44;;;-4.82;100.00
29569;BME280;16501;51.462;14.346;2022-11-20T04:11:25;99751.44;;;-4.78;100.00
29569;BME280;16501;51.462;14.346;2022-11-20T04:13:53;99751.03;;;-4.80;100.00
29569;BME280;16501;51.462;14.346;2022-11-20T04:16:19;99746.34;;;-4.79;100.00
29569;BME280;16501;51.462;14.346;2022-11-20T04:18:45;99744.81;;;-4.73;100.00
29569;BME280;16501;51.462;14.346;2022-11-20T04:21:11;99755.03;;;-4.66;100.00
29569;BME280;16501;51.462;14.346;2022-11-20T04:23:38;99746.84;;;-4.63;100.00
29569;BME280;16501;51.462;14.346;2022-11-20T04:26:10;99743.72;;;-4.61;100.00
29569;BME280;16501;51.462;14.346;2022-11-20T04:28:37;99745.28;;;-4.60;99.37
29569;BME280;16501;51.462;14.346;2022-11-20T04:31:13;99747.59;;;-4.66;99.85
29569;BME280;16501;51.462;14.346;2022-11-20T04:33:39;99721.34;;;-4.78;99.33
29569;BME280;16501;51.462;14.346;2022-11-20T04:36:11;99747.59;;;-4.66;99.84
29569;BME280;16501;51.462;14.346;2022-11-20T04:38:38;99741.38;;;-4.63;99.56
29569;BME280;16501;51.462;14.346;2022-11-20T04:41:06;99739.03;;;-4.61;99.49
29569;BME280;16501;51.462;14.346;2022-11-20T04:43:32;99735.13;;;-4.60;99.18
29569;BME280;16501;51.462;14.346;2022-11-20T04:45:58;99742.53;;;-4.60;99.09
29569;BME280;16501;51.462;14.346;2022-11-20T04:48:25;99732.34;;;-4.67;99.06
29569;BME280;16501;51.462;14.346;2022-11-20T04:50:51;99738.25;;;-4.61;99.30
29569;BME280;16501;51.462;14.346;2022-11-20T04:53:16;99742.88;;;-4.69;99.38
29569;BME280;16501;51.462;14.346;2022-11-20T04:55:42;99728.78;;;-4.75;99.31
29569;BME280;16501;51.462;14.346;2022-11-20T04:58:07;99739.00;;;-4.64;99.50
29569;BME280;16501;51.462;14.346;2022-11-20T05:00:33;99731.88;;;-4.80;99.41
29569;BME280;16501;51.462;14.346;2022-11-20T05:02:58;99741.25;;;-4.81;100.00
29569;BME280;16501;51.462;14.346;2022-11-20T05:05:23;99727.50;;;-4.95;100.00
29569;BME280;16501;51.462;14.346;2022-11-20T05:07:48;99745.19;;;-4.78;100.00
29569;BME280;16501;51.462;14.346;2022-11-20T05:10:14;99715.78;;;-4.92;100.00
29569;BME280;16501;51.462;14.346;2022-11-20T05:12:39;99742.81;;;-4.80;100.00
29569;BME280;16501;51.462;14.346;2022-11-20T05:15:05;99743.22;;;-4.78;100.00
29569;BME280;16501;51.462;14.346;2022-11-20T05:17:30;99725.16;;;-4.93;100.00
29569;BME280;16501;51.462;14.346;2022-11-20T05:19:55;99741.25;;;-4.81;100.00
29569;BME280;16501;51.462;14.346;2022-11-20T05:22:21;99728.72;;;-4.89;100.00
29569;BME280;16501;51.462;14.346;2022-11-20T05:24:46;99723.97;;;-4.96;100.00
29569;BME280;16501;51.462;14.346;2022-11-20T05:27:11;99740.44;;;-4.85;100.00
29569;BME280;16501;51.462;14.346;2022-11-20T05:29:37;99698.81;;;-5.16;100.00
29569;BME280;16501;51.462;14.346;2022-11-20T05:32:02;99740.41;;;-4.92;100.00
29569;BME280;16501;51.462;14.346;2022-11-20T05:34:27;99715.34;;;-5.01;100.00
29569;BME280;16501;51.462;14.346;2022-11-20T05:36:53;99712.97;;;-5.06;100.00
29569;BME280;16501;51.462;14.346;2022-11-20T05:39:18;99691.44;;;-5.15;100.00
29569;BME280;16501;51.462;14.346;2022-11-20T05:41:43;99720.06;;;-4.95;100.00
29569;BME280;16501;51.462;14.346;2022-11-20T05:44:13;99720.09;;;-4.91;100.00
29569;BME280;16501;51.462;14.346;2022-11-20T05:46:38;99701.22;;;-5.11;100.00
29569;BME280;16501;51.462;14.346;2022-11-20T05:49:03;99707.16;;;-5.01;100.00
29569;BME280;16501;51.462;14.346;2022-11-20T05:51:28;99684.81;;;-5.11;100.00
29569;BME280;16501;51.462;14.346;2022-11-20T05:53:56;99710.31;;;-4.92;100.00
29569;BME280;16501;51.462;14.346;2022-11-20T05:56:22;99692.66;;;-5.05;100.00
29569;BME280;16501;51.462;14.346;2022-11-20T05:58:48;99700.91;;;-4.95;100.00
29569;BME280;16501;51.462;14.346;2022-11-20T06:01:18;99702.09;;;-4.96;100.00
29569;BME280;16501;51.462;14.346;2022-11-20T06:03:44;99700.53;;;-4.93;100.00
29569;BME280;16501;51.462;14.346;2022-11-20T06:06:13;99690.38;;;-4.96;100.00
29569;BME280;16501;51.462;14.346;2022-11-20T06:08:38;99679.00;;;-5.02;100.00
29569;BME280;16501;51.462;14.346;2022-11-20T06:11:06;99700.19;;;-4.84;100.00
29569;BME280;16501;51.462;14.346;2022-11-20T06:13:31;99693.53;;;-4.94;100.00
29569;BME280;16501;51.462;14.346;2022-11-20T06:15:56;99671.56;;;-5.08;100.00
29569;BME280;16501;51.462;14.346;2022-11-20T06:18:22;99698.25;;;-4.87;100.00
29569;BME280;16501;51.462;14.346;2022-11-20T06:20:47;99718.66;;;-4.70;100.00
29569;BME280;16501;51.462;14.346;2022-11-20T06:23:13;99710.81;;;-4.72;100.00
29569;BME280;16501;51.462;14.346;2022-11-20T06:25:39;99719.06;;;-4.68;100.00
29569;BME280;16501;51.462;14.346;2022-11-20T06:28:04;99710.44;;;-4.70;100.00
29569;BME280;16501;51.462;14.346;2022-11-20T06:30:30;99698.34;;;-4.69;100.00
29569;BME280;16501;51.462;14.346;2022-11-20T06:32:55;99705.31;;;-4.76;100.00
29569;BME280;16501;51.462;14.346;2022-11-20T06:35:20;99676.00;;;-4.86;100.00
29569;BME280;16501;51.462;14.346;2022-11-20T06:37:46;99689.72;;;-4.79;100.00
29569;BME280;16501;51.462;14.346;2022-11-20T06:40:11;99710.06;;;-4.69;100.00
29569;BME280;16501;51.462;14.346;2022-11-20T06:42:37;99702.63;;;-4.72;100.00
29569;BME280;16501;51.462;14.346;2022-11-20T06:45:02;99708.88;;;-4.71;100.00
29569;BME280;16501;51.462;14.346;2022-11-20T06:47:28;99699.78;;;-4.90;100.00
29569;BME280;16501;51.462;14.346;2022-11-20T06:49:53;99703.41;;;-4.75;100.00
29569;BME280;16501;51.462;14.346;2022-11-20T06:52:18;99693.63;;;-4.72;100.00
29569;BME280;16501;51.462;14.346;2022-11-20T06:54:44;99685.44;;;-4.65;100.00
29569;BME280;16501;51.462;14.346;2022-11-20T06:57:09;99685.06;;;-4.64;100.00
29569;BME280;16501;51.462;14.346;2022-11-20T06:59:34;99713.28;;;-4.56;100.00
29569;BME280;16501;51.462;14.346;2022-11-20T07:01:59;99680.31;;;-4.78;100.00
29569;BME280;16501;51.462;14.346;2022-11-20T07:04:25;99686.16;;;-4.83;100.00
29569;BME280;16501;51.462;14.346;2022-11-20T07:06:50;99683.38;;;-4.90;100.00
29569;BME280;16501;51.462;14.346;2022-11-20T07:09:15;99704.53;;;-4.80;100.00
29569;BME280;16501;51.462;14.346;2022-11-20T07:11:41;99652.84;;;-5.03;100.00
29569;BME280;16501;51.462;14.346;2022-11-20T07:14:06;99702.66;;;-4.68;100.00
29569;BME280;16501;51.462;14.346;2022-11-20T07:16:34;99707.72;;;-4.63;100.00
29569;BME280;16501;51.462;14.346;2022-11-20T07:18:59;99710.09;;;-4.58;100.00
29569;BME280;16501;51.462;14.346;2022-11-20T07:21:24;99698.38;;;-4.62;100.00
29569;BME280;16501;51.462;14.346;2022-11-20T07:23:49;99690.53;;;-4.67;100.00
29569;BME280;16501;51.462;14.346;2022-11-20T07:26:15;99693.69;;;-4.58;100.00
29569;BME280;16501;51.462;14.346;2022-11-20T07:28:43;99676.47;;;-4.66;100.00
29569;BME280;16501;51.462;14.346;2022-11-20T07:31:08;99700.00;;;-4.47;100.00
29569;BME280;16501;51.462;14.346;2022-11-20T07:33:34;99694.53;;;-4.47;100.00
29569;BME280;16501;51.462;14.346;2022-11-20T07:35:59;99687.88;;;-4.49;100.00
29569;BME280;16501;51.462;14.346;2022-11-20T07:38:25;99671.00;;;-4.69;100.00
29569;BME280;16501;51.462;14.346;2022-11-20T07:40:54;99700.78;;;-4.50;100.00
29569;BME280;16501;51.462;14.346;2022-11-20T07:43:20;99682.72;;;-4.65;100.00
29569;BME280;16501;51.462;14.346;2022-11-20T07:45:45;99681.97;;;-4.59;100.00
29569;BME280;16501;51.462;14.346;2022-11-20T07:48:10;99689.06;;;-4.50;100.00
29569;BME280;16501;51.462;14.346;2022-11-20T07:50:35;99705.53;;;-4.36;100.00
29569;BME280;16501;51.462;14.346;2022-11-20T07:53:04;99715.31;;;-4.39;100.00
29569;BME280;16501;51.462;14.346;2022-11-20T07:55:30;99685.19;;;-4.46;100.00
29569;BME280;16501;51.462;14.346;2022-11-20T07:57:56;99684.75;;;-4.48;100.00
29569;BME280;16501;51.462;14.346;2022-11-20T08:00:23;99695.34;;;-4.36;100.00
29569;BME280;16501;51.462;14.346;2022-11-20T08:02:48;99682.03;;;-4.41;100.00
29569;BME280;16501;51.462;14.346;2022-11-20T08:05:13;99677.34;;;-4.47;100.00
29569;BME280;16501;51.462;14.346;2022-11-20T08:07:40;99698.16;;;-4.21;100.00
29569;BME280;16501;51.462;14.346;2022-11-20T08:10:07;99683.66;;;-4.25;100.00
29569;BME280;16501;51.462;14.346;2022-11-20T08:12:33;99691.09;;;-4.26;100.00
29569;BME280;16501;51.462;14.346;2022-11-20T08:15:17;99689.13;;;-4.25;100.00
29569;BME280;16501;51.462;14.346;2022-11-20T08:17:42;99673.50;;;-4.25;100.00
29569;BME280;16501;51.462;14.346;2022-11-20T08:20:08;99689.97;;;-4.14;100.00
29569;BME280;16501;51.462;14.346;2022-11-20T08:22:34;99680.94;;;-4.18;100.00
29569;BME280;16501;51.462;14.346;2022-11-20T08:24:59;99659.41;;;-4.23;99.46
29569;BME280;16501;51.462;14.346;2022-11-20T08:27:24;99680.56;;;-4.13;98.70
29569;BME280;16501;51.462;14.346;2022-11-20T08:29:50;99678.63;;;-4.12;98.31
29569;BME280;16501;51.462;14.346;2022-11-20T08:32:15;99672.78;;;-4.11;98.44
29569;BME280;16501;51.462;14.346;2022-11-20T08:34:40;99661.81;;;-4.11;98.40
29569;BME280;16501;51.462;14.346;2022-11-20T08:37:05;99675.16;;;-3.95;98.61
29569;BME280;16501;51.462;14.346;2022-11-20T08:39:31;99675.94;;;-3.87;98.25
29569;BME280;16501;51.462;14.346;2022-11-20T08:41:56;99679.44;;;-3.83;97.78
29569;BME280;16501;51.462;14.346;2022-11-20T08:44:21;99675.16;;;-3.84;98.44
29569;BME280;16501;51.462;14.346;2022-11-20T08:46:47;99690.06;;;-3.49;96.90
29569;BME280;16501;51.462;14.346;2022-11-20T08:49:13;99682.59;;;-3.06;95.02
29569;BME280;16501;51.462;14.346;2022-11-20T08:51:39;99681.28;;;-2.58;94.96
29569;BME280;16501;51.462;14.346;2022-11-20T08:54:05;99685.53;;;-1.65;93.06
29569;BME280;16501;51.462;14.346;2022-11-20T08:56:31;99662.41;;;-0.84;88.94
29569;BME280;16501;51.462;14.346;2022-11-20T08:58:57;99685.31;;;-0.57;85.80
29569;BME280;16501;51.462;14.346;2022-11-20T09:01:24;99675.75;;;0.13;83.14
29569;BME280;16501;51.462;14.346;2022-11-20T09:03:49;99677.44;;;0.07;80.10
29569;BME280;16501;51.462;14.346;2022-11-20T09:06:17;99686.03;;;1.11;76.22
29569;BME280;16501;51.462;14.346;2022-11-20T09:08:43;99682.31;;;2.18;72.17
29569;BME280;16501;51.462;14.346;2022-11-20T09:11:09;99654.81;;;3.22;66.90
29569;BME280;16501;51.462;14.346;2022-11-20T09:13:35;99666.81;;;3.61;65.45
29569;BME280;16501;51.462;14.346;2022-11-20T09:16:07;99664.94;;;3.71;61.26
29569;BME280;16501;51.462;14.346;2022-11-20T09:18:33;99684.50;;;3.93;60.71
29569;BME280;16501;51.462;14.346;2022-11-20T09:21:03;99680.88;;;4.09;59.47
29569;BME280;16501;51.462;14.346;2022-11-20T09:23:34;99685.22;;;4.10;58.23
29569;BME280;16501;51.462;14.346;2022-11-20T09:26:09;99686.03;;;3.81;56.84
29569;BME280;16501;51.462;14.346;2022-11-20T09:28:34;99687.53;;;4.24;57.67
29569;BME280;16501;51.462;14.346;2022-11-20T09:31:00;99674.53;;;4.47;57.52
29569;BME280;16501;51.462;14.346;2022-11-20T09:33:25;99688.84;;;4.71;56.74
29569;BME280;16501;51.462;14.346;2022-11-20T09:35:51;99687.44;;;5.36;54.30
29569;BME280;16501;51.462;14.346;2022-11-20T09:38:16;99692.78;;;5.43;55.35
29569;BME280;16501;51.462;14.346;2022-11-20T09:41:02;99687.44;;;5.14;52.64
29569;BME280;16501;51.462;14.346;2022-11-20T09:44:04;99688.16;;;5.50;51.49
29569;BME280;16501;51.462;14.346;2022-11-20T09:47:03;99681.50;;;5.69;52.35
29569;BME280;16501;51.462;14.346;2022-11-20T09:49:59;99663.53;;;5.39;50.35
29569;BME280;16501;51.462;14.346;2022-11-20T09:53:00;99684.59;;;5.71;51.97
29569;BME280;16501;51.462;14.346;2022-11-20T09:55:27;99678.44;;;5.76;50.68
29569;BME280;16501;51.462;14.346;2022-11-20T09:57:55;99645.56;;;5.53;52.03
29569;BME280;16501;51.462;14.346;2022-11-20T10:00:21;99642.81;;;5.40;53.22
29569;BME280;16501;51.462;14.346;2022-11-20T10:03:14;99655.56;;;5.50;51.00
29569;BME280;16501;51.462;14.346;2022-11-20T10:05:51;99648.91;;;5.03;50.13
29569;BME280;16501;51.462;14.346;2022-11-20T10:08:28;99643.09;;;5.10;52.31
29569;BME280;16501;51.462;14.346;2022-11-20T10:11:18;99649.13;;;4.96;51.34
29569;BME280;16501;51.462;14.346;2022-11-20T10:14:25;99624.00;;;4.52;52.59
29569;BME280;16501;51.462;14.346;2022-11-20T10:17:16;99647.97;;;4.71;52.60
29569;BME280;16501;51.462;14.346;2022-11-20T10:22:47;99639.53;;;5.32;53.30
29569;BME280;16501;51.462;14.346;2022-11-20T10:25:38;99636.75;;;5.32;51.30
29569;BME280;16501;51.462;14.346;2022-11-20T10:30:59;99635.84;;;5.13;51.86
29569;BME280;16501;51.462;14.346;2022-11-20T10:33:27;99629.84;;;5.15;51.70
29569;BME280;16501;51.462;14.346;2022-11-20T10:36:14;99633.97;;;5.32;51.07
29569;BME280;16501;51.462;14.346;2022-11-20T10:38:49;99618.66;;;5.27;52.83
29569;BME280;16501;51.462;14.346;2022-11-20T10:41:21;99641.53;;;5.54;50.66
29569;BME280;16501;51.462;14.346;2022-11-20T10:43:54;99629.00;;;5.27;50.79
29569;BME280;16501;51.462;14.346;2022-11-20T10:46:22;99612.78;;;5.03;51.34
29569;BME280;16501;51.462;14.346;2022-11-20T10:48:49;99619.13;;;4.91;50.77
29569;BME280;16501;51.462;14.346;2022-11-20T10:51:37;99611.94;;;5.16;50.88
29569;BME280;16501;51.462;14.346;2022-11-20T10:54:19;99624.34;;;5.24;51.59
29569;BME280;16501;51.462;14.346;2022-11-20T10:59:42;99616.72;;;5.37;50.79
29569;BME280;16501;51.462;14.346;2022-11-20T11:02:15;99566.78;;;5.56;50.59
29569;BME280;16501;51.462;14.346;2022-11-20T11:04:45;99606.53;;;5.65;50.07
29569;BME280;16501;51.462;14.346;2022-11-20T11:07:24;99596.38;;;5.40;49.35
29569;BME280;16501;51.462;14.346;2022-11-20T11:09:53;99597.63;;;6.02;49.77
29569;BME280;16501;51.462;14.346;2022-11-20T11:12:20;99594.03;;;6.51;47.68
29569;BME280;16501;51.462;14.346;2022-11-20T11:15:11;99601.19;;;6.52;47.52
29569;BME280;16501;51.462;14.346;2022-11-20T11:17:46;99600.28;;;6.74;48.16
29569;BME280;16501;51.462;14.346;2022-11-20T11:20:23;99584.94;;;7.15;47.10
29569;BME280;16501;51.462;14.346;2022-11-20T11:22:54;99604.31;;;7.10;46.38
29569;BME280;16501;51.462;14.346;2022-11-20T11:25:32;99598.41;;;6.52;45.55
29569;BME280;16501;51.462;14.346;2022-11-20T11:28:23;99595.00;;;6.57;45.78
29569;BME280;16501;51.462;14.346;2022-11-20T11:30:50;99558.63;;;6.61;45.59
29569;BME280;16501;51.462;14.346;2022-11-20T11:33:22;99568.25;;;6.78;44.77
29569;BME280;16501;51.462;14.346;2022-11-20T11:35:53;99553.81;;;6.43;44.61
29569;BME280;16501;51.462;14.346;2022-11-20T11:38:23;99585.28;;;6.71;46.04
29569;BME280;16501;51.462;14.346;2022-11-20T11:40:53;99568.25;;;6.97;44.58
29569;BME280;16501;51.462;14.346;2022-11-20T11:43:28;99569.34;;;6.90;44.81
29569;BME280;16501;51.462;14.346;2022-11-20T11:54:21;99560.41;;;5.46;46.47
29569;BME280;16501;51.462;14.346;2022-11-20T11:56:49;99563.66;;;5.00;46.49
29569;BME280;16501;51.462;14.346;2022-11-20T11:59:24;99540.41;;;4.50;47.03
29569;BME280;16501;51.462;14.346;2022-11-20T12:01:55;99545.03;;;4.18;49.01
29569;BME280;16501;51.462;14.346;2022-11-20T12:04:42;99546.94;;;3.95;50.27
29569;BME280;16501;51.462;14.346;2022-11-20T12:07:31;99524.09;;;3.66;50.94
29569;BME280;16501;51.462;14.346;2022-11-20T12:10:01;99546.41;;;3.75;50.93
29569;BME280;16501;51.462;14.346;2022-11-20T12:12:32;99527.84;;;3.33;51.43
29569;BME280;16501;51.462;14.346;2022-11-20T12:15:00;99529.03;;;3.19;52.25
29569;BME280;16501;51.462;14.346;2022-11-20T12:17:25;99535.44;;;3.16;52.82
29569;BME280;16501;51.462;14.346;2022-11-20T12:19:51;99510.31;;;3.24;53.29
29569;BME280;16501;51.462;14.346;2022-11-20T12:22:31;99511.00;;;3.28;53.66
29569;BME280;16501;51.462;14.346;2022-11-20T12:27:43;99525.84;;;3.34;54.47
29569;BME280;16501;51.462;14.346;2022-11-20T12:30:20;99525.06;;;3.33;55.18
29569;BME280;16501;51.462;14.346;2022-11-20T12:39:00;99503.63;;;3.08;57.08
29569;BME280;16501;51.462;14.346;2022-11-20T12:42:02;99514.81;;;3.05;56.46
29569;BME280;16501;51.462;14.346;2022-11-20T12:48:08;99507.66;;;2.78;56.33
29569;BME280;16501;51.462;14.346;2022-11-20T12:51:18;99503.59;;;2.82;57.45
29569;BME280;16501;51.462;14.346;2022-11-20T12:59:28;99506.50;;;4.20;52.20
29569;BME280;16501;51.462;14.346;2022-11-20T13:02:03;99505.63;;;4.80;50.41
29569;BME280;16501;51.462;14.346;2022-11-20T13:05:11;99486.16;;;5.24;48.90
29569;BME280;16501;51.462;14.346;2022-11-20T13:07:30;99507.22;;;5.75;47.70
29569;BME280;16501;51.462;14.346;2022-11-20T13:09:58;99500.72;;;4.62;49.13
29569;BME280;16501;51.462;14.346;2022-11-20T13:12:30;99512.16;;;4.29;51.00
29569;BME280;16501;51.462;14.346;2022-11-20T13:15:21;99496.81;;;3.77;52.58
29569;BME280;16501;51.462;14.346;2022-11-20T13:18:00;99487.63;;;3.54;53.62
29569;BME280;16501;51.462;14.346;2022-11-20T13:20:29;99486.44;;;2.88;56.29
29569;BME280;16501;51.462;14.346;2022-11-20T13:22:55;99477.72;;;1.98;58.13
29569;BME280;16501;51.462;14.346;2022-11-20T13:25:36;99497.69;;;2.05;59.34
29569;BME280;16501;51.462;14.346;2022-11-20T13:28:27;99497.34;;;1.87;59.99
29569;BME280;16501;51.462;14.346;2022-11-20T13:30:55;99489.22;;;1.63;60.82
29569;BME280;16501;51.462;14.346;2022-11-20T13:36:06;99441.53;;;1.43;62.50
29569;BME280;16501;51.462;14.346;2022-11-20T13:38:47;99473.84;;;1.79;62.15
29569;BME280;16501;51.462;14.346;2022-11-20T13:41:27;99479.72;;;1.64;62.29
29569;BME280;16501;51.462;14.346;2022-11-20T13:43:54;99461.59;;;1.47;63.51
29569;BME280;16501;51.462;14.346;2022-11-20T13:46:22;99475.66;;;1.53;63.53
29569;BME280;16501;51.462;14.346;2022-11-20T13:48:50;99480.75;;;1.54;64.37